sensor_id;sensor_type;location;lat;lon;timestamp;temperature;humidity
19809;DHT22;48538;32.784;-96.802;2023-05-07T00:01:02;27.90;99.90
19809;DHT22;48538;32.784;-96.802;2023-05-07T00:03:28;27.80;99.90
19809;DHT22;48538;32.784;-96.802;2023-05-07T00:05:54;27.80;99.90
19809;DHT22;48538;32.784;-96.802;2023-05-07T00:08:21;27.70;99.90
19809;DHT22;48538;32.784;-96.802;2023-05-07T00:10:47;27.60;99.90
19809;DHT22;48538;32.784;-96.802;2023-05-07T00:13:13;27.60;99.90
19809;DHT22;48538;32.784;-96.802;2023-05-07T00:15:40;27.50;99.90
19809;DHT22;48538;32.784;-96.802;2023-05-07T00:18:06;27.50;99.90
19809;DHT22;48538;32.784;-96.802;2023-05-07T00:20:32;27.40;99.90
19809;DHT22;48538;32.784;-96.802;2023-05-07T00:22:59;27.40;99.90
19809;DHT22;48538;32.784;-96.802;2023-05-07T00:25:25;27.30;99.90
19809;DHT22;48538;32.784;-96.802;2023-05-07T00:27:51;27.30;99.90
19809;DHT22;48538;32.784;-96.802;2023-05-07T00:30:18;27.20;99.90
19809;DHT22;48538;32.784;-96.802;2023-05-07T00:32:44;27.20;99.90
19809;DHT22;48538;32.784;-96.802;2023-05-07T00:35:14;27.20;99.90
19809;DHT22;48538;32.784;-96.802;2023-05-07T00:37:44;27.10;99.90
19809;DHT22;48538;32.784;-96.802;2023-05-07T00:40:10;27.10;99.90
19809;DHT22;48538;32.784;-96.802;2023-05-07T00:42:37;27.10;99.90
19809;DHT22;48538;32.784;-96.802;2023-05-07T00:45:04;27.10;99.90
19809;DHT22;48538;32.784;-96.802;2023-05-07T00:47:31;27.10;99.90
19809;DHT22;48538;32.784;-96.802;2023-05-07T00:49:57;27.00;99.90
19809;DHT22;48538;32.784;-96.802;2023-05-07T00:52:26;27.00;99.90
19809;DHT22;48538;32.784;-96.802;2023-05-07T00:54:52;27.00;99.90
19809;DHT22;48538;32.784;-96.802;2023-05-07T00:57:20;26.90;99.90
19809;DHT22;48538;32.784;-96.802;2023-05-07T00:59:47;26.90;99.90
19809;DHT22;48538;32.784;-96.802;2023-05-07T01:02:14;26.90;99.90
19809;DHT22;48538;32.784;-96.802;2023-05-07T01:04:40;26.90;99.90
19809;DHT22;48538;32.784;-96.802;2023-05-07T01:07:06;26.90;99.90
19809;DHT22;48538;32.784;-96.802;2023-05-07T01:09:34;26.90;99.90
19809;DHT22;48538;32.784;-96.802;2023-05-07T01:12:01;26.90;99.90
19809;DHT22;48538;32.784;-96.802;2023-05-07T01:14:27;26.80;99.90
19809;DHT22;48538;32.784;-96.802;2023-05-07T01:16:55;26.80;99.90
19809;DHT22;48538;32.784;-96.802;2023-05-07T01:19:21;26.80;99.90
19809;DHT22;48538;32.784;-96.802;2023-05-07T01:21:49;26.80;99.90
19809;DHT22;48538;32.784;-96.802;2023-05-07T01:24:17;26.90;99.90
19809;DHT22;48538;32.784;-96.802;2023-05-07T01:26:44;26.80;99.90
19809;DHT22;48538;32.784;-96.802;2023-05-07T01:29:10;26.80;99.90
19809;DHT22;48538;32.784;-96.802;2023-05-07T01:31:37;26.80;99.90
19809;DHT22;48538;32.784;-96.802;2023-05-07T01:34:05;26.80;99.90
19809;DHT22;48538;32.784;-96.802;2023-05-07T01:36:33;26.80;99.90
19809;DHT22;48538;32.784;-96.802;2023-05-07T01:38:59;26.80;99.90
19809;DHT22;48538;32.784;-96.802;2023-05-07T01:41:26;26.80;99.90
19809;DHT22;48538;32.784;-96.802;2023-05-07T01:43:52;26.70;99.90
19809;DHT22;48538;32.784;-96.802;2023-05-07T01:46:19;26.70;99.90
19809;DHT22;48538;32.784;-96.802;2023-05-07T01:48:46;26.70;99.90
19809;DHT22;48538;32.784;-96.802;2023-05-07T01:51:13;26.70;99.90
19809;DHT22;48538;32.784;-96.802;2023-05-07T01:53:39;26.70;99.90
19809;DHT22;48538;32.784;-96.802;2023-05-07T01:56:07;26.60;99.90
19809;DHT22;48538;32.784;-96.802;2023-05-07T01:58:33;26.60;99.90
19809;DHT22;48538;32.784;-96.802;2023-05-07T02:00:59;26.60;99.90
19809;DHT22;48538;32.784;-96.802;2023-05-07T02:03:26;26.60;99.90
19809;DHT22;48538;32.784;-96.802;2023-05-07T02:05:52;26.60;99.90
19809;DHT22;48538;32.784;-96.802;2023-05-07T02:08:18;26.60;99.90
19809;DHT22;48538;32.784;-96.802;2023-05-07T02:10:44;26.60;99.90
19809;DHT22;48538;32.784;-96.802;2023-05-07T02:13:11;26.60;99.90
19809;DHT22;48538;32.784;-96.802;2023-05-07T02:15:37;26.60;99.90
19809;DHT22;48538;32.784;-96.802;2023-05-07T02:18:05;26.60;99.90
19809;DHT22;48538;32.784;-96.802;2023-05-07T02:20:32;26.60;99.90
19809;DHT22;48538;32.784;-96.802;2023-05-07T02:22:59;26.60;99.90
19809;DHT22;48538;32.784;-96.802;2023-05-07T02:25:26;26.60;99.90
19809;DHT22;48538;32.784;-96.802;2023-05-07T02:27:52;26.60;99.90
19809;DHT22;48538;32.784;-96.802;2023-05-07T02:30:18;26.60;99.90
19809;DHT22;48538;32.784;-96.802;2023-05-07T02:32:47;26.60;99.90
19809;DHT22;48538;32.784;-96.802;2023-05-07T02:35:13;26.50;99.90
19809;DHT22;48538;32.784;-96.802;2023-05-07T02:37:39;26.50;99.90
19809;DHT22;48538;32.784;-96.802;2023-05-07T02:40:06;26.50;99.90
19809;DHT22;48538;32.784;-96.802;2023-05-07T02:42:32;26.50;99.90
19809;DHT22;48538;32.784;-96.802;2023-05-07T02:44:58;26.50;99.90
19809;DHT22;48538;32.784;-96.802;2023-05-07T02:47:25;26.50;99.90
19809;DHT22;48538;32.784;-96.802;2023-05-07T02:49:57;26.40;99.90
19809;DHT22;48538;32.784;-96.802;2023-05-07T02:52:23;26.50;99.90
19809;DHT22;48538;32.784;-96.802;2023-05-07T02:54:50;26.50;99.90
19809;DHT22;48538;32.784;-96.802;2023-05-07T02:57:16;26.50;99.90
19809;DHT22;48538;32.784;-96.802;2023-05-07T02:59:42;26.50;99.90
19809;DHT22;48538;32.784;-96.802;2023-05-07T03:02:09;26.50;99.90
19809;DHT22;48538;32.784;-96.802;2023-05-07T03:04:36;26.50;99.90
19809;DHT22;48538;32.784;-96.802;2023-05-07T03:07:02;26.60;99.90
19809;DHT22;48538;32.784;-96.802;2023-05-07T03:09:28;26.60;99.90
19809;DHT22;48538;32.784;-96.802;2023-05-07T03:11:54;26.70;99.90
19809;DHT22;48538;32.784;-96.802;2023-05-07T03:14:21;26.70;99.90
19809;DHT22;48538;32.784;-96.802;2023-05-07T03:16:49;26.70;99.90
19809;DHT22;48538;32.784;-96.802;2023-05-07T03:19:16;26.70;99.90
19809;DHT22;48538;32.784;-96.802;2023-05-07T03:21:42;26.70;99.90
19809;DHT22;48538;32.784;-96.802;2023-05-07T03:24:08;26.70;99.90
19809;DHT22;48538;32.784;-96.802;2023-05-07T03:26:34;26.70;99.90
19809;DHT22;48538;32.784;-96.802;2023-05-07T03:29:01;26.60;99.90
19809;DHT22;48538;32.784;-96.802;2023-05-07T03:31:27;26.60;99.90
19809;DHT22;48538;32.784;-96.802;2023-05-07T03:33:56;26.60;99.90
19809;DHT22;48538;32.784;-96.802;2023-05-07T03:36:22;26.50;99.90
19809;DHT22;48538;32.784;-96.802;2023-05-07T03:38:49;26.50;99.90
19809;DHT22;48538;32.784;-96.802;2023-05-07T03:41:16;26.40;99.90
19809;DHT22;48538;32.784;-96.802;2023-05-07T03:43:42;26.10;99.90
19809;DHT22;48538;32.784;-96.802;2023-05-07T03:46:09;25.10;99.90
19809;DHT22;48538;32.784;-96.802;2023-05-07T03:48:35;24.30;99.90
19809;DHT22;48538;32.784;-96.802;2023-05-07T03:51:01;23.60;99.90
19809;DHT22;48538;32.784;-96.802;2023-05-07T03:53:27;23.00;99.90
19809;DHT22;48538;32.784;-96.802;2023-05-07T03:55:54;22.40;99.90
19809;DHT22;48538;32.784;-96.802;2023-05-07T03:58:20;21.90;99.90
19809;DHT22;48538;32.784;-96.802;2023-05-07T04:00:46;21.80;99.90
19809;DHT22;48538;32.784;-96.802;2023-05-07T04:03:13;21.80;99.90
19809;DHT22;48538;32.784;-96.802;2023-05-07T04:05:40;21.50;99.90
19809;DHT22;48538;32.784;-96.802;2023-05-07T04:08:06;21.50;99.90
19809;DHT22;48538;32.784;-96.802;2023-05-07T04:10:33;21.50;99.90
19809;DHT22;48538;32.784;-96.802;2023-05-07T04:12:59;21.40;99.90
19809;DHT22;48538;32.784;-96.802;2023-05-07T04:15:25;21.50;99.90
19809;DHT22;48538;32.784;-96.802;2023-05-07T04:17:51;21.40;99.90
19809;DHT22;48538;32.784;-96.802;2023-05-07T04:20:18;21.30;99.90
19809;DHT22;48538;32.784;-96.802;2023-05-07T04:22:44;21.20;99.90
19809;DHT22;48538;32.784;-96.802;2023-05-07T04:25:10;21.10;99.90
19809;DHT22;48538;32.784;-96.802;2023-05-07T04:27:37;20.90;99.90
19809;DHT22;48538;32.784;-96.802;2023-05-07T04:30:03;20.70;99.90
19809;DHT22;48538;32.784;-96.802;2023-05-07T04:32:30;20.70;99.90
19809;DHT22;48538;32.784;-96.802;2023-05-07T04:34:57;20.60;99.90
19809;DHT22;48538;32.784;-96.802;2023-05-07T04:37:24;20.50;99.90
19809;DHT22;48538;32.784;-96.802;2023-05-07T04:39:51;20.50;99.90
19809;DHT22;48538;32.784;-96.802;2023-05-07T04:42:18;20.50;99.90
19809;DHT22;48538;32.784;-96.802;2023-05-07T04:44:45;20.50;99.90
19809;DHT22;48538;32.784;-96.802;2023-05-07T04:47:11;20.50;99.90
19809;DHT22;48538;32.784;-96.802;2023-05-07T04:49:38;20.60;99.90
19809;DHT22;48538;32.784;-96.802;2023-05-07T04:52:05;20.70;99.90
19809;DHT22;48538;32.784;-96.802;2023-05-07T04:54:31;20.70;99.90
19809;DHT22;48538;32.784;-96.802;2023-05-07T04:56:57;20.60;99.90
19809;DHT22;48538;32.784;-96.802;2023-05-07T04:59:24;20.70;99.90
19809;DHT22;48538;32.784;-96.802;2023-05-07T05:01:50;20.80;99.90
19809;DHT22;48538;32.784;-96.802;2023-05-07T05:04:16;20.90;99.90
19809;DHT22;48538;32.784;-96.802;2023-05-07T05:06:43;20.80;99.90
19809;DHT22;48538;32.784;-96.802;2023-05-07T05:09:09;20.80;99.90
19809;DHT22;48538;32.784;-96.802;2023-05-07T05:11:35;20.70;99.90
19809;DHT22;48538;32.784;-96.802;2023-05-07T05:14:01;20.50;99.90
19809;DHT22;48538;32.784;-96.802;2023-05-07T05:16:28;20.50;99.90
19809;DHT22;48538;32.784;-96.802;2023-05-07T05:18:54;20.60;99.90
19809;DHT22;48538;32.784;-96.802;2023-05-07T05:21:21;20.60;99.90
19809;DHT22;48538;32.784;-96.802;2023-05-07T05:23:47;20.70;99.90
19809;DHT22;48538;32.784;-96.802;2023-05-07T05:26:14;20.90;99.90
19809;DHT22;48538;32.784;-96.802;2023-05-07T05:28:40;21.10;99.90
19809;DHT22;48538;32.784;-96.802;2023-05-07T05:31:06;21.00;99.90
19809;DHT22;48538;32.784;-96.802;2023-05-07T05:33:33;20.80;99.90
19809;DHT22;48538;32.784;-96.802;2023-05-07T05:35:59;20.60;99.90
19809;DHT22;48538;32.784;-96.802;2023-05-07T05:38:25;20.60;99.90
19809;DHT22;48538;32.784;-96.802;2023-05-07T05:40:51;20.50;99.90
19809;DHT22;48538;32.784;-96.802;2023-05-07T05:43:18;20.30;99.90
19809;DHT22;48538;32.784;-96.802;2023-05-07T05:45:44;20.20;99.90
19809;DHT22;48538;32.784;-96.802;2023-05-07T05:48:10;20.10;99.90
19809;DHT22;48538;32.784;-96.802;2023-05-07T05:50:37;20.10;99.90
19809;DHT22;48538;32.784;-96.802;2023-05-07T05:53:03;20.20;99.90
19809;DHT22;48538;32.784;-96.802;2023-05-07T05:55:29;20.30;99.90
19809;DHT22;48538;32.784;-96.802;2023-05-07T05:57:59;20.40;99.90
19809;DHT22;48538;32.784;-96.802;2023-05-07T06:00:25;20.60;99.90
19809;DHT22;48538;32.784;-96.802;2023-05-07T06:02:52;20.90;99.90
19809;DHT22;48538;32.784;-96.802;2023-05-07T06:05:18;21.00;99.90
19809;DHT22;48538;32.784;-96.802;2023-05-07T06:07:45;21.10;99.90
19809;DHT22;48538;32.784;-96.802;2023-05-07T06:10:11;21.20;99.90
19809;DHT22;48538;32.784;-96.802;2023-05-07T06:12:37;21.40;99.90
19809;DHT22;48538;32.784;-96.802;2023-05-07T06:15:04;21.60;99.90
19809;DHT22;48538;32.784;-96.802;2023-05-07T06:17:30;21.70;99.90
19809;DHT22;48538;32.784;-96.802;2023-05-07T06:19:57;21.70;99.90
19809;DHT22;48538;32.784;-96.802;2023-05-07T06:22:23;21.80;99.90
19809;DHT22;48538;32.784;-96.802;2023-05-07T06:24:50;21.80;99.90
19809;DHT22;48538;32.784;-96.802;2023-05-07T06:27:16;21.80;99.90
19809;DHT22;48538;32.784;-96.802;2023-05-07T06:29:42;21.80;99.90
19809;DHT22;48538;32.784;-96.802;2023-05-07T06:32:10;21.80;99.90
19809;DHT22;48538;32.784;-96.802;2023-05-07T06:34:36;21.80;99.90
19809;DHT22;48538;32.784;-96.802;2023-05-07T06:37:03;21.90;99.90
19809;DHT22;48538;32.784;-96.802;2023-05-07T06:39:30;22.10;99.90
19809;DHT22;48538;32.784;-96.802;2023-05-07T06:41:56;22.20;99.90
19809;DHT22;48538;32.784;-96.802;2023-05-07T06:44:22;22.40;99.90
19809;DHT22;48538;32.784;-96.802;2023-05-07T06:46:48;22.40;99.90
19809;DHT22;48538;32.784;-96.802;2023-05-07T06:49:15;22.50;99.90
19809;DHT22;48538;32.784;-96.802;2023-05-07T06:51:41;22.40;99.90
19809;DHT22;48538;32.784;-96.802;2023-05-07T06:54:08;22.40;99.90
19809;DHT22;48538;32.784;-96.802;2023-05-07T06:56:34;22.20;99.90
19809;DHT22;48538;32.784;-96.802;2023-05-07T06:59:01;22.20;99.90
19809;DHT22;48538;32.784;-96.802;2023-05-07T07:01:28;22.20;99.90
19809;DHT22;48538;32.784;-96.802;2023-05-07T07:03:55;22.20;99.90
19809;DHT22;48538;32.784;-96.802;2023-05-07T07:06:21;22.20;99.90
19809;DHT22;48538;32.784;-96.802;2023-05-07T07:08:47;22.10;99.90
19809;DHT22;48538;32.784;-96.802;2023-05-07T07:11:14;22.00;99.90
19809;DHT22;48538;32.784;-96.802;2023-05-07T07:13:41;22.00;99.90
19809;DHT22;48538;32.784;-96.802;2023-05-07T07:16:09;22.00;99.90
19809;DHT22;48538;32.784;-96.802;2023-05-07T07:18:35;21.90;99.90
19809;DHT22;48538;32.784;-96.802;2023-05-07T07:21:01;21.90;99.90
19809;DHT22;48538;32.784;-96.802;2023-05-07T07:23:28;22.00;99.90
19809;DHT22;48538;32.784;-96.802;2023-05-07T07:25:54;22.00;99.90
19809;DHT22;48538;32.784;-96.802;2023-05-07T07:28:21;21.90;99.90
19809;DHT22;48538;32.784;-96.802;2023-05-07T07:30:47;21.90;99.90
19809;DHT22;48538;32.784;-96.802;2023-05-07T07:33:14;22.00;99.90
19809;DHT22;48538;32.784;-96.802;2023-05-07T07:35:40;22.00;99.90
19809;DHT22;48538;32.784;-96.802;2023-05-07T07:38:06;22.00;99.90
19809;DHT22;48538;32.784;-96.802;2023-05-07T07:40:35;22.00;99.90
19809;DHT22;48538;32.784;-96.802;2023-05-07T07:43:02;22.00;99.90
19809;DHT22;48538;32.784;-96.802;2023-05-07T07:45:28;22.10;99.90
19809;DHT22;48538;32.784;-96.802;2023-05-07T07:47:54;22.10;99.90
19809;DHT22;48538;32.784;-96.802;2023-05-07T07:50:21;22.20;99.90
19809;DHT22;48538;32.784;-96.802;2023-05-07T07:52:48;22.10;99.90
19809;DHT22;48538;32.784;-96.802;2023-05-07T07:55:15;22.00;99.90
19809;DHT22;48538;32.784;-96.802;2023-05-07T07:57:46;21.90;99.90
19809;DHT22;48538;32.784;-96.802;2023-05-07T08:00:13;21.80;99.90
19809;DHT22;48538;32.784;-96.802;2023-05-07T08:02:39;21.70;99.90
19809;DHT22;48538;32.784;-96.802;2023-05-07T08:05:06;21.70;99.90
19809;DHT22;48538;32.784;-96.802;2023-05-07T08:07:33;21.60;99.90
19809;DHT22;48538;32.784;-96.802;2023-05-07T08:09:59;21.60;99.90
19809;DHT22;48538;32.784;-96.802;2023-05-07T08:12:25;21.60;99.90
19809;DHT22;48538;32.784;-96.802;2023-05-07T08:14:52;21.70;99.90
19809;DHT22;48538;32.784;-96.802;2023-05-07T08:17:18;21.70;99.90
19809;DHT22;48538;32.784;-96.802;2023-05-07T08:19:44;21.80;99.90
19809;DHT22;48538;32.784;-96.802;2023-05-07T08:22:11;21.80;99.90
19809;DHT22;48538;32.784;-96.802;2023-05-07T08:24:37;21.80;99.90
19809;DHT22;48538;32.784;-96.802;2023-05-07T08:27:03;21.80;99.90
19809;DHT22;48538;32.784;-96.802;2023-05-07T08:29:30;21.80;99.90
19809;DHT22;48538;32.784;-96.802;2023-05-07T08:31:56;21.80;99.90
19809;DHT22;48538;32.784;-96.802;2023-05-07T08:34:22;21.80;99.90
19809;DHT22;48538;32.784;-96.802;2023-05-07T08:36:49;21.70;99.90
19809;DHT22;48538;32.784;-96.802;2023-05-07T08:39:18;21.70;99.90
19809;DHT22;48538;32.784;-96.802;2023-05-07T08:41:48;21.70;99.90
19809;DHT22;48538;32.784;-96.802;2023-05-07T08:44:21;21.60;99.90
19809;DHT22;48538;32.784;-96.802;2023-05-07T08:46:49;21.60;99.90
19809;DHT22;48538;32.784;-96.802;2023-05-07T08:49:20;21.50;99.90
19809;DHT22;48538;32.784;-96.802;2023-05-07T08:51:46;21.50;99.90
19809;DHT22;48538;32.784;-96.802;2023-05-07T08:54:16;21.40;99.90
19809;DHT22;48538;32.784;-96.802;2023-05-07T08:56:43;21.40;99.90
19809;DHT22;48538;32.784;-96.802;2023-05-07T08:59:10;21.30;99.90
19809;DHT22;48538;32.784;-96.802;2023-05-07T09:01:36;21.20;99.90
19809;DHT22;48538;32.784;-96.802;2023-05-07T09:04:03;21.20;99.90
19809;DHT22;48538;32.784;-96.802;2023-05-07T09:06:30;21.20;99.90
19809;DHT22;48538;32.784;-96.802;2023-05-07T09:08:57;21.10;99.90
19809;DHT22;48538;32.784;-96.802;2023-05-07T09:11:24;21.00;99.90
19809;DHT22;48538;32.784;-96.802;2023-05-07T09:13:57;20.90;99.90
19809;DHT22;48538;32.784;-96.802;2023-05-07T09:16:28;20.90;99.90
19809;DHT22;48538;32.784;-96.802;2023-05-07T09:18:57;20.90;99.90
19809;DHT22;48538;32.784;-96.802;2023-05-07T09:21:23;20.90;99.90
19809;DHT22;48538;32.784;-96.802;2023-05-07T09:23:53;21.00;99.90
19809;DHT22;48538;32.784;-96.802;2023-05-07T09:26:23;21.00;99.90
19809;DHT22;48538;32.784;-96.802;2023-05-07T09:28:50;21.00;99.90
19809;DHT22;48538;32.784;-96.802;2023-05-07T09:31:17;21.00;99.90
19809;DHT22;48538;32.784;-96.802;2023-05-07T09:33:44;21.00;99.90
19809;DHT22;48538;32.784;-96.802;2023-05-07T09:36:10;21.00;99.90
19809;DHT22;48538;32.784;-96.802;2023-05-07T09:38:37;21.00;99.90
19809;DHT22;48538;32.784;-96.802;2023-05-07T09:43:34;21.00;99.90
19809;DHT22;48538;32.784;-96.802;2023-05-07T09:46:25;21.00;99.90
19809;DHT22;48538;32.784;-96.802;2023-05-07T09:48:53;21.00;99.90
19809;DHT22;48538;32.784;-96.802;2023-05-07T09:51:45;21.00;99.90
19809;DHT22;48538;32.784;-96.802;2023-05-07T09:54:13;21.00;99.90
19809;DHT22;48538;32.784;-96.802;2023-05-07T09:56:40;21.00;99.90
19809;DHT22;48538;32.784;-96.802;2023-05-07T09:59:13;21.10;99.90
19809;DHT22;48538;32.784;-96.802;2023-05-07T10:01:41;21.00;99.90
19809;DHT22;48538;32.784;-96.802;2023-05-07T10:04:08;21.00;99.90
19809;DHT22;48538;32.784;-96.802;2023-05-07T10:06:36;21.10;99.90
19809;DHT22;48538;32.784;-96.802;2023-05-07T10:09:04;21.10;99.90
19809;DHT22;48538;32.784;-96.802;2023-05-07T10:11:36;21.10;99.90
19809;DHT22;48538;32.784;-96.802;2023-05-07T10:14:03;21.10;99.90
19809;DHT22;48538;32.784;-96.802;2023-05-07T10:16:33;21.10;99.90
19809;DHT22;48538;32.784;-96.802;2023-05-07T10:19:06;21.10;99.90
19809;DHT22;48538;32.784;-96.802;2023-05-07T10:21:37;21.10;99.90
19809;DHT22;48538;32.784;-96.802;2023-05-07T10:24:16;21.10;99.90
19809;DHT22;48538;32.784;-96.802;2023-05-07T10:26:48;21.10;99.90
19809;DHT22;48538;32.784;-96.802;2023-05-07T10:32:30;21.10;99.90
19809;DHT22;48538;32.784;-96.802;2023-05-07T10:35:01;21.10;99.90
19809;DHT22;48538;32.784;-96.802;2023-05-07T10:37:29;21.00;99.90
19809;DHT22;48538;32.784;-96.802;2023-05-07T10:39:55;21.00;99.90
19809;DHT22;48538;32.784;-96.802;2023-05-07T10:42:22;21.00;99.90
19809;DHT22;48538;32.784;-96.802;2023-05-07T10:44:49;21.10;99.90
19809;DHT22;48538;32.784;-96.802;2023-05-07T10:47:18;21.00;99.90
19809;DHT22;48538;32.784;-96.802;2023-05-07T10:52:21;21.00;99.90
19809;DHT22;48538;32.784;-96.802;2023-05-07T10:57:45;21.00;99.90
19809;DHT22;48538;32.784;-96.802;2023-05-07T11:05:30;21.10;99.90
19809;DHT22;48538;32.784;-96.802;2023-05-07T11:07:57;21.00;99.90
19809;DHT22;48538;32.784;-96.802;2023-05-07T11:10:47;21.00;99.90
19809;DHT22;48538;32.784;-96.802;2023-05-07T11:13:15;21.00;99.90
19809;DHT22;48538;32.784;-96.802;2023-05-07T11:15:45;21.10;99.90
19809;DHT22;48538;32.784;-96.802;2023-05-07T11:18:14;21.00;99.90
19809;DHT22;48538;32.784;-96.802;2023-05-07T11:26:11;21.00;99.90
19809;DHT22;48538;32.784;-96.802;2023-05-07T11:28:39;21.00;99.90
19809;DHT22;48538;32.784;-96.802;2023-05-07T11:31:06;21.10;99.90
19809;DHT22;48538;32.784;-96.802;2023-05-07T11:33:32;21.10;99.90
19809;DHT22;48538;32.784;-96.802;2023-05-07T11:36:00;21.10;99.90
19809;DHT22;48538;32.784;-96.802;2023-05-07T11:38:29;21.10;99.90
19809;DHT22;48538;32.784;-96.802;2023-05-07T11:40:57;21.10;99.90
19809;DHT22;48538;32.784;-96.802;2023-05-07T11:43:26;21.20;99.90
19809;DHT22;48538;32.784;-96.802;2023-05-07T11:45:53;21.20;99.90
19809;DHT22;48538;32.784;-96.802;2023-05-07T11:48:21;21.20;99.90
19809;DHT22;48538;32.784;-96.802;2023-05-07T11:50:52;21.20;99.90
19809;DHT22;48538;32.784;-96.802;2023-05-07T11:53:19;21.20;99.90
19809;DHT22;48538;32.784;-96.802;2023-05-07T11:55:46;21.20;99.90
19809;DHT22;48538;32.784;-96.802;2023-05-07T11:58:20;21.20;99.90
19809;DHT22;48538;32.784;-96.802;2023-05-07T12:00:51;21.20;99.90
19809;DHT22;48538;32.784;-96.802;2023-05-07T12:03:17;21.30;99.90
19809;DHT22;48538;32.784;-96.802;2023-05-07T12:05:45;21.30;99.90
19809;DHT22;48538;32.784;-96.802;2023-05-07T12:08:17;21.30;99.90
19809;DHT22;48538;32.784;-96.802;2023-05-07T12:10:44;21.30;99.90
19809;DHT22;48538;32.784;-96.802;2023-05-07T12:13:15;21.30;99.90
19809;DHT22;48538;32.784;-96.802;2023-05-07T12:15:42;21.30;99.90
19809;DHT22;48538;32.784;-96.802;2023-05-07T12:18:10;21.30;99.90
19809;DHT22;48538;32.784;-96.802;2023-05-07T12:20:37;21.40;99.90
19809;DHT22;48538;32.784;-96.802;2023-05-07T12:23:03;21.40;99.90
19809;DHT22;48538;32.784;-96.802;2023-05-07T12:25:40;21.40;99.90
19809;DHT22;48538;32.784;-96.802;2023-05-07T12:28:15;21.50;99.90
19809;DHT22;48538;32.784;-96.802;2023-05-07T12:30:47;21.50;99.90
19809;DHT22;48538;32.784;-96.802;2023-05-07T12:33:18;21.50;99.90
19809;DHT22;48538;32.784;-96.802;2023-05-07T12:35:44;21.50;99.90
19809;DHT22;48538;32.784;-96.802;2023-05-07T12:38:15;21.50;99.90
19809;DHT22;48538;32.784;-96.802;2023-05-07T12:40:45;21.50;99.90
19809;DHT22;48538;32.784;-96.802;2023-05-07T12:43:26;21.60;99.90
19809;DHT22;48538;32.784;-96.802;2023-05-07T12:45:57;21.60;99.90
19809;DHT22;48538;32.784;-96.802;2023-05-07T12:48:24;21.60;99.90
19809;DHT22;48538;32.784;-96.802;2023-05-07T12:51:00;21.70;99.90
19809;DHT22;48538;32.784;-96.802;2023-05-07T12:53:28;21.70;99.90
19809;DHT22;48538;32.784;-96.802;2023-05-07T12:55:57;21.70;99.90
19809;DHT22;48538;32.784;-96.802;2023-05-07T12:58:30;21.80;99.90
19809;DHT22;48538;32.784;-96.802;2023-05-07T13:00:58;21.90;99.90
19809;DHT22;48538;32.784;-96.802;2023-05-07T13:03:30;21.90;99.90
19809;DHT22;48538;32.784;-96.802;2023-05-07T13:06:07;22.00;99.90
19809;DHT22;48538;32.784;-96.802;2023-05-07T13:08:41;22.10;99.90
19809;DHT22;48538;32.784;-96.802;2023-05-07T13:11:11;22.10;99.90
19809;DHT22;48538;32.784;-96.802;2023-05-07T13:13:39;22.20;99.90
19809;DHT22;48538;32.784;-96.802;2023-05-07T13:16:08;22.20;99.90
19809;DHT22;48538;32.784;-96.802;2023-05-07T13:18:35;22.20;99.90
19809;DHT22;48538;32.784;-96.802;2023-05-07T13:21:01;22.30;99.90
19809;DHT22;48538;32.784;-96.802;2023-05-07T13:23:28;22.40;99.90
19809;DHT22;48538;32.784;-96.802;2023-05-07T13:25:55;22.50;99.90
19809;DHT22;48538;32.784;-96.802;2023-05-07T13:28:24;22.50;99.90
19809;DHT22;48538;32.784;-96.802;2023-05-07T13:30:53;22.50;99.90
19809;DHT22;48538;32.784;-96.802;2023-05-07T13:33:20;22.60;99.90
19809;DHT22;48538;32.784;-96.802;2023-05-07T13:35:46;22.70;99.90
19809;DHT22;48538;32.784;-96.802;2023-05-07T13:38:12;22.70;99.90
19809;DHT22;48538;32.784;-96.802;2023-05-07T13:40:39;22.80;99.90
19809;DHT22;48538;32.784;-96.802;2023-05-07T13:43:06;22.90;99.90
19809;DHT22;48538;32.784;-96.802;2023-05-07T13:45:32;22.90;99.90
19809;DHT22;48538;32.784;-96.802;2023-05-07T13:47:58;22.90;99.90
19809;DHT22;48538;32.784;-96.802;2023-05-07T13:50:24;22.90;99.90
19809;DHT22;48538;32.784;-96.802;2023-05-07T13:52:52;23.00;99.90
19809;DHT22;48538;32.784;-96.802;2023-05-07T13:55:20;23.00;99.90
19809;DHT22;48538;32.784;-96.802;2023-05-07T13:57:47;23.10;99.90
19809;DHT22;48538;32.784;-96.802;2023-05-07T14:00:14;23.20;99.90
19809;DHT22;48538;32.784;-96.802;2023-05-07T14:02:42;23.20;99.90
19809;DHT22;48538;32.784;-96.802;2023-05-07T14:05:08;23.20;99.90
19809;DHT22;48538;32.784;-96.802;2023-05-07T14:07:36;23.10;99.90
19809;DHT22;48538;32.784;-96.802;2023-05-07T14:10:02;23.20;99.90
19809;DHT22;48538;32.784;-96.802;2023-05-07T14:12:29;23.30;99.90
19809;DHT22;48538;32.784;-96.802;2023-05-07T14:14:55;23.30;99.90
19809;DHT22;48538;32.784;-96.802;2023-05-07T14:17:22;23.30;99.90
19809;DHT22;48538;32.784;-96.802;2023-05-07T14:19:51;23.50;99.90
19809;DHT22;48538;32.784;-96.802;2023-05-07T14:22:20;23.50;99.90
19809;DHT22;48538;32.784;-96.802;2023-05-07T14:24:47;23.60;99.90
19809;DHT22;48538;32.784;-96.802;2023-05-07T14:27:13;23.70;99.90
19809;DHT22;48538;32.784;-96.802;2023-05-07T14:29:39;23.70;99.90
19809;DHT22;48538;32.784;-96.802;2023-05-07T14:32:06;23.80;99.90
19809;DHT22;48538;32.784;-96.802;2023-05-07T14:34:32;23.80;99.90
19809;DHT22;48538;32.784;-96.802;2023-05-07T14:37:00;23.90;99.90
19809;DHT22;48538;32.784;-96.802;2023-05-07T14:39:27;24.00;99.90
19809;DHT22;48538;32.784;-96.802;2023-05-07T14:41:53;24.10;99.90
19809;DHT22;48538;32.784;-96.802;2023-05-07T14:44:21;24.20;99.90
19809;DHT22;48538;32.784;-96.802;2023-05-07T14:46:48;24.20;99.90
19809;DHT22;48538;32.784;-96.802;2023-05-07T14:49:14;24.30;99.90
19809;DHT22;48538;32.784;-96.802;2023-05-07T14:51:46;24.40;99.90
19809;DHT22;48538;32.784;-96.802;2023-05-07T14:54:13;24.40;99.90
19809;DHT22;48538;32.784;-96.802;2023-05-07T14:56:40;24.50;99.90
19809;DHT22;48538;32.784;-96.802;2023-05-07T14:59:07;24.60;99.90
19809;DHT22;48538;32.784;-96.802;2023-05-07T15:01:37;24.60;99.90
19809;DHT22;48538;32.784;-96.802;2023-05-07T15:04:04;24.70;99.90
19809;DHT22;48538;32.784;-96.802;2023-05-07T15:06:31;24.70;99.90
19809;DHT22;48538;32.784;-96.802;2023-05-07T15:08:57;24.80;99.90
19809;DHT22;48538;32.784;-96.802;2023-05-07T15:11:24;24.80;99.90
19809;DHT22;48538;32.784;-96.802;2023-05-07T15:13:50;24.80;99.90
19809;DHT22;48538;32.784;-96.802;2023-05-07T15:16:16;24.90;99.90
19809;DHT22;48538;32.784;-96.802;2023-05-07T15:18:43;24.90;99.90
19809;DHT22;48538;32.784;-96.802;2023-05-07T15:21:10;24.90;99.90
19809;DHT22;48538;32.784;-96.802;2023-05-07T15:23:36;25.00;99.90
19809;DHT22;48538;32.784;-96.802;2023-05-07T15:26:03;25.10;99.90